Time;durP1;ratioP1;P1;durP2;ratioP2;P2;SDS_P1;SDS_P2;PMS_P1;PMS_P2;Temp;Humidity;BMP_temperature;BMP_pressure;BME280_temperature;BME280_humidity;BME280_pressure;Samples;Min_cycle;Max_cycle;Signal;HPM_P1;HPM_P2
2021/07/16 00:00:15;;;;;;;21.35;9.80;;;;;;;;;;5032691;28;20028;-62
2021/07/16 00:02:41;;;;;;;24.17;9.63;;;;;;;;;;5033983;28;20026;-62
2021/07/16 00:05:08;;;;;;;24.27;10.02;;;;;;;;;;5033579;28;20018;-61
2021/07/16 00:07:34;;;;;;;22.85;9.05;;;;;;;;;;5032498;28;20548;-60
2021/07/16 00:10:00;;;;;;;22.55;9.40;;;;;;;;;;5033811;28;20029;-62
2021/07/16 00:12:27;;;;;;;27.25;10.05;;;;;;;;;;5033876;28;20029;-62
2021/07/16 00:14:55;;;;;;;27.67;10.20;;;;;;;;;;5033391;28;20504;-60
2021/07/16 00:17:22;;;;;;;24.42;10.27;;;;;;;;;;5032305;28;20030;-61
2021/07/16 00:19:48;;;;;;;22.00;9.60;;;;;;;;;;5033840;28;20037;-63
2021/07/16 00:22:14;;;;;;;30.05;9.38;;;;;;;;;;5032565;28;20029;-63
2021/07/16 00:24:40;;;;;;;25.88;10.18;;;;;;;;;;5033577;28;20063;-60
2021/07/16 00:27:06;;;;;;;22.63;9.57;;;;;;;;;;5032108;28;20026;-62
2021/07/16 00:29:32;;;;;;;24.00;9.55;;;;;;;;;;5033514;28;20033;-60
2021/07/16 00:31:58;;;;;;;26.05;10.32;;;;;;;;;;5032214;28;20036;-62
2021/07/16 00:34:24;;;;;;;20.17;9.10;;;;;;;;;;5032355;28;20029;-62
2021/07/16 00:36:50;;;;;;;23.95;9.38;;;;;;;;;;5033182;28;20030;-62
2021/07/16 00:39:16;;;;;;;21.88;9.95;;;;;;;;;;5033266;28;20117;-62
2021/07/16 00:41:42;;;;;;;22.65;10.23;;;;;;;;;;5033284;28;20048;-61
2021/07/16 00:44:08;;;;;;;23.02;9.15;;;;;;;;;;5033271;28;20029;-60
2021/07/16 00:46:34;;;;;;;22.65;10.07;;;;;;;;;;5033026;28;20032;-61
2021/07/16 00:49:00;;;;;;;20.38;8.68;;;;;;;;;;5033117;28;20100;-61
2021/07/16 00:51:26;;;;;;;25.70;10.50;;;;;;;;;;5033308;28;20065;-59
2021/07/16 00:53:52;;;;;;;26.13;10.25;;;;;;;;;;5032992;28;20026;-60
2021/07/16 00:56:18;;;;;;;22.73;9.80;;;;;;;;;;5032690;28;20500;-61
2021/07/16 00:58:44;;;;;;;21.30;8.93;;;;;;;;;;5031787;28;20095;-62
2021/07/16 01:01:10;;;;;;;25.63;9.25;;;;;;;;;;5032993;28;20025;-61
2021/07/16 01:03:36;;;;;;;24.85;9.35;;;;;;;;;;5032880;28;20163;-57
2021/07/16 01:06:02;;;;;;;23.85;10.13;;;;;;;;;;5032705;28;20063;-61
2021/07/16 01:08:29;;;;;;;21.98;9.25;;;;;;;;;;5033042;28;20033;-61
2021/07/16 01:10:55;;;;;;;22.10;9.80;;;;;;;;;;5033196;28;20026;-59
2021/07/16 01:13:21;;;;;;;23.02;10.00;;;;;;;;;;5031882;28;20033;-61
2021/07/16 01:15:47;;;;;;;21.60;10.02;;;;;;;;;;5032383;28;20048;-62
2021/07/16 01:18:14;;;;;;;25.30;10.65;;;;;;;;;;5032972;28;20477;-62
2021/07/16 01:20:39;;;;;;;28.77;9.98;;;;;;;;;;5032956;28;20108;-62
2021/07/16 01:23:16;;;;;;;29.17;10.65;;;;;;;;;;5031685;28;20064;-61
2021/07/16 01:25:42;;;;;;;24.02;8.90;;;;;;;;;;5032432;28;20068;-61
2021/07/16 01:28:08;;;;;;;23.95;10.23;;;;;;;;;;5031211;28;20083;-62
2021/07/16 01:30:34;;;;;;;23.20;9.00;;;;;;;;;;5032728;28;20424;-61
2021/07/16 01:33:01;;;;;;;20.92;9.40;;;;;;;;;;5032379;28;20079;-63
2021/07/16 01:35:27;;;;;;;23.67;9.43;;;;;;;;;;5032069;28;20021;-63
2021/07/16 01:37:53;;;;;;;25.00;10.32;;;;;;;;;;5031051;28;20025;-64
2021/07/16 01:40:21;;;;;;;21.52;8.27;;;;;;;;;;5030917;28;20029;-62
2021/07/16 01:42:51;;;;;;;24.88;8.85;;;;;;;;;;5030847;28;20025;-63
2021/07/16 01:45:19;;;;;;;21.52;8.98;;;;;;;;;;5031857;28;20140;-64
2021/07/16 01:47:48;;;;;;;19.98;8.13;;;;;;;;;;5032037;28;20422;-63
2021/07/16 01:50:15;;;;;;;21.60;9.40;;;;;;;;;;5032122;28;20481;-63
2021/07/16 01:52:41;;;;;;;23.88;10.48;;;;;;;;;;5031954;28;20033;-62
2021/07/16 01:55:09;;;;;;;20.17;9.02;;;;;;;;;;5030541;28;20500;-61
2021/07/16 01:57:35;;;;;;;25.08;9.77;;;;;;;;;;5031761;28;20494;-63
2021/07/16 02:00:01;;;;;;;20.55;9.15;;;;;;;;;;5031953;28;20036;-61
2021/07/16 02:02:27;;;;;;;21.02;8.85;;;;;;;;;;5030538;28;20013;-61
2021/07/16 02:04:54;;;;;;;23.45;9.77;;;;;;;;;;5031290;28;20462;-59
2021/07/16 02:07:20;;;;;;;20.45;8.77;;;;;;;;;;5031572;28;20486;-61
2021/07/16 02:09:46;;;;;;;22.55;9.00;;;;;;;;;;5030042;28;20033;-61
2021/07/16 02:12:12;;;;;;;19.77;8.90;;;;;;;;;;5031589;28;20032;-61
2021/07/16 02:14:38;;;;;;;24.52;9.52;;;;;;;;;;5066789;22;20131;-60
2021/07/16 02:17:04;;;;;;;19.98;9.35;;;;;;;;;;5092257;28;20032;-57
2021/07/16 02:19:34;;;;;;;23.48;9.82;;;;;;;;;;5091734;28;20028;-61
2021/07/16 02:22:00;;;;;;;19.13;9.10;;;;;;;;;;5091769;28;20020;-60
2021/07/16 02:24:26;;;;;;;25.42;10.27;;;;;;;;;;5091826;28;20024;-59
2021/07/16 02:26:52;;;;;;;23.33;9.90;;;;;;;;;;5091559;28;20123;-61
2021/07/16 02:29:18;;;;;;;21.20;10.27;;;;;;;;;;5092577;28;20024;-60
2021/07/16 02:31:48;;;;;;;22.55;10.45;;;;;;;;;;5092618;28;20031;-61
2021/07/16 02:34:14;;;;;;;27.05;10.55;;;;;;;;;;5092568;28;20024;-61
2021/07/16 02:36:40;;;;;;;27.30;10.82;;;;;;;;;;5091148;28;20050;-59
2021/07/16 02:39:06;;;;;;;24.20;10.75;;;;;;;;;;5091158;28;20023;-61
2021/07/16 02:41:32;;;;;;;24.02;11.02;;;;;;;;;;5092357;28;20091;-61
2021/07/16 02:43:58;;;;;;;24.67;11.05;;;;;;;;;;5092459;28;20426;-61
2021/07/16 02:46:24;;;;;;;25.30;11.02;;;;;;;;;;5090855;28;20022;-61
2021/07/16 02:48:50;;;;;;;25.35;11.13;;;;;;;;;;5092330;28;20391;-60
2021/07/16 02:51:16;;;;;;;22.00;11.15;;;;;;;;;;5091311;28;20052;-58
2021/07/16 02:53:42;;;;;;;22.83;11.05;;;;;;;;;;5092245;28;20054;-60
2021/07/16 02:56:08;;;;;;;24.27;11.15;;;;;;;;;;5091040;28;20408;-60
2021/07/16 02:58:34;;;;;;;24.08;11.60;;;;;;;;;;5090985;28;20124;-60
2021/07/16 03:01:00;;;;;;;23.90;10.93;;;;;;;;;;5092242;28;20024;-61
2021/07/16 03:03:26;;;;;;;21.88;10.40;;;;;;;;;;5092196;28;20027;-60
2021/07/16 03:05:52;;;;;;;24.83;10.32;;;;;;;;;;5091861;28;20059;-61
2021/07/16 03:08:18;;;;;;;24.13;10.57;;;;;;;;;;5092255;28;20031;-61
2021/07/16 03:10:46;;;;;;;22.52;11.48;;;;;;;;;;5090846;28;20020;-61
2021/07/16 03:13:14;;;;;;;25.25;10.95;;;;;;;;;;5092018;28;20486;-60
2021/07/16 03:15:40;;;;;;;21.38;10.95;;;;;;;;;;5090351;28;20028;-61
2021/07/16 03:18:07;;;;;;;23.75;10.82;;;;;;;;;;5090662;28;20028;-57
2021/07/16 03:20:34;;;;;;;22.95;10.35;;;;;;;;;;5091964;28;20099;-60
2021/07/16 03:23:01;;;;;;;23.02;11.02;;;;;;;;;;5090741;28;20024;-58
2021/07/16 03:25:27;;;;;;;23.40;10.77;;;;;;;;;;5090375;28;20020;-57
2021/07/16 03:27:53;;;;;;;21.15;10.13;;;;;;;;;;5091750;28;20082;-61
2021/07/16 03:30:21;;;;;;;24.17;10.63;;;;;;;;;;5091835;28;20028;-60
2021/07/16 03:32:47;;;;;;;24.60;11.68;;;;;;;;;;5091829;28;20023;-61
2021/07/16 03:35:13;;;;;;;23.15;10.02;;;;;;;;;;5091623;28;20038;-61
2021/07/16 03:37:42;;;;;;;24.42;9.70;;;;;;;;;;5091804;28;20099;-60
2021/07/16 03:40:10;;;;;;;27.52;11.18;;;;;;;;;;5090361;28;20055;-58
2021/07/16 03:42:36;;;;;;;27.53;11.17;;;;;;;;;;5090785;28;20376;-60
2021/07/16 03:45:03;;;;;;;23.17;10.30;;;;;;;;;;5090505;28;20032;-60
2021/07/16 03:47:29;;;;;;;27.15;10.98;;;;;;;;;;5090140;28;20023;-61
2021/07/16 03:49:55;;;;;;;29.45;10.20;;;;;;;;;;5090692;28;20032;-61
2021/07/16 03:52:21;;;;;;;26.92;10.10;;;;;;;;;;5091619;28;20031;-61
2021/07/16 03:54:47;;;;;;;33.22;12.18;;;;;;;;;;5091651;28;20464;-61
2021/07/16 03:57:14;;;;;;;23.80;9.07;;;;;;;;;;5090063;28;20028;-61
2021/07/16 03:59:40;;;;;;;24.48;10.20;;;;;;;;;;5091663;28;20031;-59
2021/07/16 04:02:06;;;;;;;23.88;10.40;;;;;;;;;;5091611;28;20095;-60
2021/07/16 04:04:33;;;;;;;27.15;10.18;;;;;;;;;;5090480;28;20066;-61
2021/07/16 04:06:59;;;;;;;24.48;9.32;;;;;;;;;;5093173;28;20475;-59
2021/07/16 04:09:26;;;;;;;26.15;10.70;;;;;;;;;;5093831;28;20122;-60
2021/07/16 04:12:11;;;;;;;24.02;9.75;;;;;;;;;;5095163;28;20106;-61
2021/07/16 04:14:39;;;;;;;28.13;11.35;;;;;;;;;;5094891;28;20082;-59
2021/07/16 04:17:07;;;;;;;21.02;9.85;;;;;;;;;;5094929;28;20036;-61
2021/07/16 04:19:33;;;;;;;23.88;9.85;;;;;;;;;;5095009;28;20108;-58
2021/07/16 04:21:59;;;;;;;27.80;10.65;;;;;;;;;;5094959;28;20095;-61
2021/07/16 04:24:25;;;;;;;25.88;10.20;;;;;;;;;;5093791;28;20450;-61
2021/07/16 04:26:51;;;;;;;25.25;9.75;;;;;;;;;;5093363;28;20028;-60
2021/07/16 04:29:17;;;;;;;28.80;10.10;;;;;;;;;;5093988;28;20609;-59
2021/07/16 04:31:43;;;;;;;24.55;10.10;;;;;;;;;;5093659;28;20056;-61
2021/07/16 04:34:09;;;;;;;23.60;10.13;;;;;;;;;;5076960;28;20459;-60
2021/07/16 04:36:35;;;;;;;29.35;10.07;;;;;;;;;;5094498;28;20028;-59
2021/07/16 04:39:01;;;;;;;24.58;9.50;;;;;;;;;;5094695;28;20099;-59
2021/07/16 04:41:27;;;;;;;27.83;10.05;;;;;;;;;;5093243;28;20086;-60
2021/07/16 04:43:55;;;;;;;27.63;10.20;;;;;;;;;;5094648;28;20039;-60
2021/07/16 04:46:21;;;;;;;26.55;11.05;;;;;;;;;;5092982;28;20112;-59
2021/07/16 04:48:47;;;;;;;26.38;10.88;;;;;;;;;;5094388;28;20024;-56
2021/07/16 04:51:23;;;;;;;32.45;11.07;;;;;;;;;;5093279;28;20042;-58
2021/07/16 04:53:51;;;;;;;28.55;11.02;;;;;;;;;;5094116;28;20017;-60
2021/07/16 04:56:17;;;;;;;28.77;12.20;;;;;;;;;;5092776;28;20066;-59
2021/07/16 04:58:43;;;;;;;26.48;11.82;;;;;;;;;;5094362;28;20024;-60
2021/07/16 05:01:09;;;;;;;29.58;11.60;;;;;;;;;;5092621;28;20369;-56
2021/07/16 05:03:35;;;;;;;25.08;12.75;;;;;;;;;;5093933;28;20020;-58
2021/07/16 05:06:01;;;;;;;27.67;12.93;;;;;;;;;;5093625;28;20389;-58
2021/07/16 05:08:27;;;;;;;26.67;13.35;;;;;;;;;;5094450;28;20437;-59
2021/07/16 05:10:53;;;;;;;26.25;11.77;;;;;;;;;;5092522;28;20024;-58
2021/07/16 05:13:19;;;;;;;23.27;11.88;;;;;;;;;;5092442;28;20472;-67
2021/07/16 05:15:45;;;;;;;27.90;11.40;;;;;;;;;;5088937;28;20024;-61
2021/07/16 05:18:11;;;;;;;27.13;11.43;;;;;;;;;;5104730;28;20032;-60
2021/07/16 05:20:37;;;;;;;28.13;12.82;;;;;;;;;;5097450;28;20020;-60
2021/07/16 05:23:03;;;;;;;29.95;11.60;;;;;;;;;;5092263;28;20027;-60
2021/07/16 05:25:29;;;;;;;24.42;11.07;;;;;;;;;;5072279;28;20031;-61
2021/07/16 05:27:55;;;;;;;26.88;12.00;;;;;;;;;;5072559;28;20120;-61
2021/07/16 05:30:21;;;;;;;26.90;11.02;;;;;;;;;;5072099;28;20430;-60
2021/07/16 05:32:47;;;;;;;33.80;11.88;;;;;;;;;;5083509;28;20038;-61
2021/07/16 05:35:13;;;;;;;23.95;10.52;;;;;;;;;;5093416;28;20032;-62
2021/07/16 05:37:39;;;;;;;27.67;10.55;;;;;;;;;;5093685;28;20467;-63
2021/07/16 05:40:05;;;;;;;24.63;10.43;;;;;;;;;;5092478;28;20028;-63
2021/07/16 05:42:31;;;;;;;27.92;12.75;;;;;;;;;;5094565;28;20020;-64
2021/07/16 05:44:57;;;;;;;29.23;12.02;;;;;;;;;;5092906;28;20109;-63
2021/07/16 05:47:23;;;;;;;24.80;10.05;;;;;;;;;;5092591;28;20474;-64
2021/07/16 05:49:51;;;;;;;22.77;10.45;;;;;;;;;;5083740;28;20376;-63
2021/07/16 05:52:17;;;;;;;27.65;11.70;;;;;;;;;;5073269;28;20020;-63
2021/07/16 05:54:43;;;;;;;24.35;11.40;;;;;;;;;;5072108;28;20029;-64
2021/07/16 05:57:09;;;;;;;27.13;11.55;;;;;;;;;;5072999;28;20082;-64
2021/07/16 05:59:35;;;;;;;27.25;12.35;;;;;;;;;;5073178;28;20096;-63
2021/07/16 06:02:02;;;;;;;26.63;11.45;;;;;;;;;;5073023;28;20025;-64
2021/07/16 06:04:28;;;;;;;23.88;10.13;;;;;;;;;;5072161;28;20020;-64
2021/07/16 06:06:54;;;;;;;31.23;11.20;;;;;;;;;;5072010;28;20412;-62
2021/07/16 06:09:20;;;;;;;25.80;10.90;;;;;;;;;;5072875;28;20021;-63
2021/07/16 06:11:46;;;;;;;29.08;11.57;;;;;;;;;;5071313;28;20031;-64
2021/07/16 06:14:13;;;;;;;26.60;11.40;;;;;;;;;;5071663;28;20036;-63
2021/07/16 06:16:39;;;;;;;27.98;10.15;;;;;;;;;;5072700;28;20028;-63
2021/07/16 06:19:05;;;;;;;30.25;10.38;;;;;;;;;;5071508;28;20032;-64
2021/07/16 06:21:31;;;;;;;25.98;10.43;;;;;;;;;;5072895;28;20067;-64
2021/07/16 06:23:57;;;;;;;30.63;11.70;;;;;;;;;;5072583;28;20484;-64
2021/07/16 06:26:23;;;;;;;22.48;10.60;;;;;;;;;;5072404;28;20024;-64
2021/07/16 06:28:49;;;;;;;30.92;11.73;;;;;;;;;;5072723;28;20031;-64
2021/07/16 06:31:15;;;;;;;27.17;11.60;;;;;;;;;;5071864;28;20025;-64
2021/07/16 06:33:41;;;;;;;29.95;11.32;;;;;;;;;;5071405;28;20036;-64
2021/07/16 06:36:07;;;;;;;26.65;11.93;;;;;;;;;;5072245;28;20468;-64
2021/07/16 06:38:33;;;;;;;28.58;11.32;;;;;;;;;;5071382;28;20024;-63
2021/07/16 06:41:01;;;;;;;30.42;11.00;;;;;;;;;;5072499;28;20465;-63
2021/07/16 06:43:27;;;;;;;32.10;10.93;;;;;;;;;;5072048;28;20031;-64
2021/07/16 06:45:53;;;;;;;32.67;12.15;;;;;;;;;;5070718;28;20029;-63
2021/07/16 06:48:20;;;;;;;38.38;12.07;;;;;;;;;;5083072;28;20479;-63
2021/07/16 06:50:46;;;;;;;29.83;12.07;;;;;;;;;;5081112;28;20023;-63
2021/07/16 06:53:12;;;;;;;34.55;11.60;;;;;;;;;;5073650;28;20392;-62
2021/07/16 06:55:38;;;;;;;33.00;12.70;;;;;;;;;;5070808;28;20024;-63
2021/07/16 06:58:04;;;;;;;32.25;12.45;;;;;;;;;;5072336;28;20025;-64
2021/07/16 07:00:33;;;;;;;34.33;12.05;;;;;;;;;;5071977;28;20480;-63
2021/07/16 07:02:59;;;;;;;34.30;11.02;;;;;;;;;;5072294;28;20373;-63
2021/07/16 07:05:25;;;;;;;31.50;10.38;;;;;;;;;;5070794;28;20082;-63
2021/07/16 07:07:52;;;;;;;34.17;11.80;;;;;;;;;;5072278;28;20020;-63
2021/07/16 07:10:18;;;;;;;29.30;10.68;;;;;;;;;;5072384;28;20047;-64
2021/07/16 07:12:44;;;;;;;29.15;10.23;;;;;;;;;;5070794;28;20081;-64
2021/07/16 07:15:11;;;;;;;29.67;10.57;;;;;;;;;;5070822;28;20037;-64
2021/07/16 07:17:37;;;;;;;36.65;12.23;;;;;;;;;;5092168;28;20024;-63
2021/07/16 07:20:04;;;;;;;32.88;13.23;;;;;;;;;;5090805;28;20132;-64
2021/07/16 07:22:30;;;;;;;31.00;11.27;;;;;;;;;;5092065;28;20103;-62
2021/07/16 07:24:56;;;;;;;30.20;11.65;;;;;;;;;;5092421;28;20062;-62
2021/07/16 07:27:22;;;;;;;31.00;11.60;;;;;;;;;;5092096;28;20024;-61
2021/07/16 07:29:48;;;;;;;29.58;11.30;;;;;;;;;;5092134;28;20034;-61
2021/07/16 07:32:14;;;;;;;27.23;11.20;;;;;;;;;;5092415;28;20495;-62
2021/07/16 07:34:40;;;;;;;29.35;10.95;;;;;;;;;;5092159;28;20619;-61
2021/07/16 07:37:07;;;;;;;29.13;11.48;;;;;;;;;;5091578;28;20024;-62
2021/07/16 07:39:33;;;;;;;27.73;10.45;;;;;;;;;;5088224;28;20013;-62
2021/07/16 07:41:59;;;;;;;32.15;10.18;;;;;;;;;;5085080;28;20016;-63
2021/07/16 07:44:25;;;;;;;28.88;10.43;;;;;;;;;;5094361;28;20016;-62
2021/07/16 07:46:51;;;;;;;31.33;10.73;;;;;;;;;;5095689;28;20035;-61
2021/07/16 07:49:17;;;;;;;30.83;9.98;;;;;;;;;;5095597;28;20112;-62
2021/07/16 07:51:43;;;;;;;33.38;11.73;;;;;;;;;;5094160;28;20039;-62
2021/07/16 07:54:09;;;;;;;31.40;12.32;;;;;;;;;;5095426;28;20494;-61
2021/07/16 07:56:36;;;;;;;29.83;12.32;;;;;;;;;;5093991;28;20115;-61
2021/07/16 07:59:03;;;;;;;26.75;10.05;;;;;;;;;;5095478;28;20084;-65
2021/07/16 08:01:30;;;;;;;34.38;10.90;;;;;;;;;;5095302;28;20063;-66
2021/07/16 08:03:56;;;;;;;29.02;11.05;;;;;;;;;;5095555;28;20467;-65
2021/07/16 08:06:22;;;;;;;27.75;9.73;;;;;;;;;;5093717;28;20035;-66
2021/07/16 08:08:47;;;;;;;28.35;9.70;;;;;;;;;;5094258;28;20402;-66
2021/07/16 08:11:14;;;;;;;32.38;10.68;;;;;;;;;;5093923;28;20124;-66
2021/07/16 08:13:40;;;;;;;28.75;11.02;;;;;;;;;;5093819;28;20028;-66
2021/07/16 08:16:06;;;;;;;28.58;11.85;;;;;;;;;;5073891;22;20052;-62
2021/07/16 08:18:32;;;;;;;23.05;9.95;;;;;;;;;;5035143;28;20451;-58
2021/07/16 08:20:57;;;;;;;30.30;10.10;;;;;;;;;;5053404;28;20035;-62
2021/07/16 08:23:24;;;;;;;29.52;11.05;;;;;;;;;;5053286;28;20029;-64
2021/07/16 08:25:50;;;;;;;32.05;11.07;;;;;;;;;;5035159;28;20064;-62
2021/07/16 08:28:16;;;;;;;34.30;10.57;;;;;;;;;;5035709;28;20405;-63
2021/07/16 08:30:42;;;;;;;28.55;10.50;;;;;;;;;;5035392;28;20064;-64
2021/07/16 08:33:08;;;;;;;28.90;10.32;;;;;;;;;;5035522;28;20029;-64
2021/07/16 08:35:34;;;;;;;27.10;10.40;;;;;;;;;;5052990;28;20025;-64
2021/07/16 08:38:00;;;;;;;25.20;10.13;;;;;;;;;;5052958;28;20028;-60
2021/07/16 08:40:26;;;;;;;25.65;9.82;;;;;;;;;;5053178;28;20017;-64
2021/07/16 08:42:52;;;;;;;27.13;10.38;;;;;;;;;;5035026;28;20060;-64
2021/07/16 08:45:18;;;;;;;27.33;9.98;;;;;;;;;;5035000;28;20369;-62
2021/07/16 08:47:45;;;;;;;26.55;9.95;;;;;;;;;;5053121;28;20030;-64
2021/07/16 08:50:12;;;;;;;22.88;10.23;;;;;;;;;;5053142;28;20075;-63
2021/07/16 08:52:40;;;;;;;24.75;9.23;;;;;;;;;;5054601;28;20028;-59
2021/07/16 08:55:07;;;;;;;23.30;10.23;;;;;;;;;;5044561;28;20029;-59
2021/07/16 08:57:33;;;;;;;26.23;10.60;;;;;;;;;;5063019;28;20169;-59
2021/07/16 08:59:59;;;;;;;26.95;10.48;;;;;;;;;;5060519;28;20028;-59
2021/07/16 09:02:27;;;;;;;23.65;10.90;;;;;;;;;;5052646;28;20017;-60
2021/07/16 09:04:58;;;;;;;24.50;10.27;;;;;;;;;;5052503;28;20024;-59
2021/07/16 09:07:24;;;;;;;34.92;11.52;;;;;;;;;;5034590;28;20500;-62
2021/07/16 09:09:50;;;;;;;24.20;10.32;;;;;;;;;;5052598;28;20082;-62
2021/07/16 09:12:16;;;;;;;26.65;10.07;;;;;;;;;;5052437;28;20024;-60
2021/07/16 09:14:42;;;;;;;28.63;11.80;;;;;;;;;;5052170;28;20570;-62
2021/07/16 09:17:09;;;;;;;27.10;10.18;;;;;;;;;;5052150;28;20033;-61
2021/07/16 09:19:40;;;;;;;25.15;9.80;;;;;;;;;;5034619;28;20021;-59
2021/07/16 09:22:09;;;;;;;33.78;10.75;;;;;;;;;;5052617;28;20051;-60
2021/07/16 09:24:36;;;;;;;25.88;10.48;;;;;;;;;;5052512;28;20564;-59
2021/07/16 09:27:03;;;;;;;26.77;9.23;;;;;;;;;;5052518;28;20370;-60
2021/07/16 09:29:33;;;;;;;30.27;10.85;;;;;;;;;;5052302;28;20488;-61
2021/07/16 09:32:17;;;;;;;26.08;9.43;;;;;;;;;;5052408;28;20111;-61
2021/07/16 09:34:49;;;;;;;30.70;11.40;;;;;;;;;;5051942;28;20099;-57
2021/07/16 09:37:15;;;;;;;26.45;10.55;;;;;;;;;;5033610;28;20025;-61
2021/07/16 09:39:46;;;;;;;23.30;9.82;;;;;;;;;;5052365;28;20032;-61
2021/07/16 09:42:13;;;;;;;25.38;10.30;;;;;;;;;;5033994;28;20095;-62
2021/07/16 09:44:45;;;;;;;27.35;10.40;;;;;;;;;;5052122;28;20404;-61
2021/07/16 09:47:13;;;;;;;24.17;9.13;;;;;;;;;;5033951;28;20029;-61
2021/07/16 09:49:40;;;;;;;25.48;10.35;;;;;;;;;;5052212;28;20025;-61
2021/07/16 09:52:07;;;;;;;25.75;9.00;;;;;;;;;;5033900;28;20033;-60
2021/07/16 09:54:33;;;;;;;24.38;10.00;;;;;;;;;;5033828;28;20029;-61
2021/07/16 09:56:59;;;;;;;25.33;10.20;;;;;;;;;;5051413;28;20099;-62
2021/07/16 09:59:28;;;;;;;29.15;10.60;;;;;;;;;;5051935;28;20536;-59
2021/07/16 10:01:54;;;;;;;24.48;9.88;;;;;;;;;;5051373;28;20025;-63
2021/07/16 10:04:21;;;;;;;27.95;10.38;;;;;;;;;;5051284;28;20051;-63
2021/07/16 10:06:49;;;;;;;21.50;9.27;;;;;;;;;;5033010;28;20029;-61
2021/07/16 10:09:18;;;;;;;28.30;11.95;;;;;;;;;;5051469;28;20076;-59
2021/07/16 10:11:48;;;;;;;33.63;11.60;;;;;;;;;;5033613;28;20040;-63
2021/07/16 10:14:15;;;;;;;26.75;10.77;;;;;;;;;;5051179;28;20025;-61
2021/07/16 10:16:43;;;;;;;25.75;9.90;;;;;;;;;;5032794;28;20037;-63
2021/07/16 10:19:09;;;;;;;;;;;;;;;;;;5051714;28;20043;-62
2021/07/16 10:21:37;;;;;;;24.77;9.70;;;;;;;;;;5051095;28;20288;-61
2021/07/16 10:24:03;;;;;;;23.73;9.20;;;;;;;;;;5050846;28;20021;-63
2021/07/16 10:26:29;;;;;;;24.98;9.75;;;;;;;;;;5033051;28;20508;-61
2021/07/16 10:28:55;;;;;;;29.70;10.88;;;;;;;;;;5033184;28;20512;-60
2021/07/16 10:31:32;;;;;;;25.75;10.95;;;;;;;;;;5033203;28;20064;-62
2021/07/16 10:34:18;;;;;;;27.92;10.32;;;;;;;;;;5050851;28;20090;-59
2021/07/16 10:36:44;;;;;;;28.08;11.20;;;;;;;;;;5049257;28;20036;-62
2021/07/16 10:39:12;;;;;;;33.08;11.00;;;;;;;;;;5050750;28;20104;-63
2021/07/16 10:41:40;;;;;;;24.73;10.60;;;;;;;;;;5033002;28;20021;-63
2021/07/16 10:44:06;;;;;;;;;;;;;;;;;;5051282;28;20029;-70
2021/07/16 10:46:42;;;;;;;23.77;10.75;;;;;;;;;;5050571;28;19957;-70
2021/07/16 10:49:12;;;;;;;24.85;10.00;;;;;;;;;;5050844;28;20020;-69
2021/07/16 10:51:38;;;;;;;26.83;11.18;;;;;;;;;;5050664;28;20024;-68
2021/07/16 10:54:06;;;;;;;27.42;10.63;;;;;;;;;;5032624;28;20033;-56
2021/07/16 10:56:46;;;;;;;25.92;10.32;;;;;;;;;;5050128;28;20492;-60
2021/07/16 10:59:30;;;;;;;29.00;10.55;;;;;;;;;;5050180;28;20020;-61
2021/07/16 11:01:56;;;;;;;25.80;10.95;;;;;;;;;;5032648;28;20393;-62
2021/07/16 11:04:30;;;;;;;28.63;10.45;;;;;;;;;;5050330;28;20024;-61
2021/07/16 11:06:57;;;;;;;26.17;11.18;;;;;;;;;;5049777;28;20358;-60
2021/07/16 11:09:41;;;;;;;29.90;10.95;;;;;;;;;;5050468;28;20411;-62
2021/07/16 11:12:21;;;;;;;26.15;10.15;;;;;;;;;;5050395;28;20070;-62
2021/07/16 11:14:47;;;;;;;23.60;9.70;;;;;;;;;;5049999;28;20037;-63
2021/07/16 11:17:39;;;;;;;26.60;9.98;;;;;;;;;;5052337;28;20057;-62
2021/07/16 11:20:09;;;;;;;27.73;9.60;;;;;;;;;;5050915;28;20032;-61
2021/07/16 11:22:35;;;;;;;27.85;10.52;;;;;;;;;;5054508;28;20136;-63
2021/07/16 11:25:01;;;;;;;28.15;12.55;;;;;;;;;;5036217;28;20058;-61
2021/07/16 11:27:27;;;;;;;31.52;10.30;;;;;;;;;;5053452;28;20025;-61
2021/07/16 11:29:53;;;;;;;28.73;10.15;;;;;;;;;;5053769;28;20036;-60
2021/07/16 11:32:22;;;;;;;27.60;10.57;;;;;;;;;;5035571;28;20036;-62
2021/07/16 11:34:57;;;;;;;29.15;10.63;;;;;;;;;;5053838;28;20108;-63
2021/07/16 11:37:43;;;;;;;24.20;10.07;;;;;;;;;;5053253;28;20485;-63
2021/07/16 11:40:17;;;;;;;26.73;11.65;;;;;;;;;;5053804;28;20020;-62
2021/07/16 11:42:44;;;;;;;31.27;10.70;;;;;;;;;;5054303;28;20390;-62
2021/07/16 11:45:13;;;;;;;28.63;9.60;;;;;;;;;;5053683;28;20457;-63
2021/07/16 11:47:39;;;;;;;23.60;10.38;;;;;;;;;;5035790;28;20060;-62
2021/07/16 11:50:07;;;;;;;24.30;10.60;;;;;;;;;;5053884;28;20025;-62
2021/07/16 11:52:33;;;;;;;29.27;10.85;;;;;;;;;;5053575;28;20032;-62
2021/07/16 11:55:19;;;;;;;26.63;10.75;;;;;;;;;;5053688;28;20029;-62
2021/07/16 11:58:05;;;;;;;29.08;11.27;;;;;;;;;;5053548;28;20032;-62
2021/07/16 12:00:32;;;;;;;28.13;10.05;;;;;;;;;;5053793;28;20103;-60
2021/07/16 12:03:02;;;;;;;27.65;10.55;;;;;;;;;;5053670;28;20064;-63
2021/07/16 12:05:29;;;;;;;30.80;10.63;;;;;;;;;;5053215;28;20017;-61
2021/07/16 12:07:56;;;;;;;28.77;11.85;;;;;;;;;;5053544;28;20033;-63
2021/07/16 12:10:22;;;;;;;27.35;11.27;;;;;;;;;;5053258;28;20033;-62
2021/07/16 12:12:48;;;;;;;33.28;11.88;;;;;;;;;;5062302;28;20025;-63
2021/07/16 12:15:19;;;;;;;27.65;11.65;;;;;;;;;;5062660;28;20052;-60
2021/07/16 12:17:59;;;;;;;28.98;11.25;;;;;;;;;;5059016;28;20021;-61
2021/07/16 12:20:28;;;;;;;26.67;11.35;;;;;;;;;;5045957;28;20411;-62
2021/07/16 12:22:54;;;;;;;;;;;;;;;;;;5063212;28;20217;-61
2021/07/16 12:25:20;;;;;;;27.63;11.57;;;;;;;;;;5061420;28;19948;-63
2021/07/16 12:28:02;;;;;;;29.70;11.73;;;;;;;;;;5063239;28;20103;-60
2021/07/16 12:30:28;;;;;;;24.55;11.68;;;;;;;;;;5059961;28;20029;-63
2021/07/16 12:33:00;;;;;;;27.33;11.10;;;;;;;;;;5046813;28;20021;-61
2021/07/16 12:35:27;;;;;;;25.80;12.10;;;;;;;;;;5046987;28;20039;-62
2021/07/16 12:37:59;;;;;;;32.70;12.15;;;;;;;;;;5072573;28;20078;-60
2021/07/16 12:40:24;;;;;;;25.67;11.70;;;;;;;;;;5072750;28;20044;-63
2021/07/16 12:43:01;;;;;;;31.02;12.10;;;;;;;;;;5072749;28;20078;-62
2021/07/16 12:45:39;;;;;;;27.60;11.35;;;;;;;;;;5072086;28;20468;-60
2021/07/16 12:48:13;;;;;;;33.63;12.77;;;;;;;;;;5072546;28;20039;-62
2021/07/16 12:50:39;;;;;;;29.25;11.85;;;;;;;;;;5072029;28;20112;-63
2021/07/16 12:53:06;;;;;;;31.73;13.43;;;;;;;;;;5072646;28;20032;-59
2021/07/16 12:55:33;;;;;;;27.35;12.25;;;;;;;;;;5072255;28;20052;-61
2021/07/16 12:58:01;;;;;;;27.67;12.43;;;;;;;;;;5072286;28;20028;-63
2021/07/16 13:00:27;;;;;;;30.02;14.20;;;;;;;;;;5072615;28;20394;-63
2021/07/16 13:03:12;;;;;;;31.67;12.43;;;;;;;;;;5054427;28;20661;-58
2021/07/16 13:05:38;;;;;;;32.85;14.25;;;;;;;;;;5072132;28;20210;-62
2021/07/16 13:08:21;;;;;;;29.83;12.65;;;;;;;;;;5072404;28;20111;-62
2021/07/16 13:10:53;;;;;;;29.20;13.20;;;;;;;;;;5072348;28;20031;-57
2021/07/16 13:13:20;;;;;;;30.98;12.23;;;;;;;;;;5054566;28;20029;-61
2021/07/16 13:15:46;;;;;;;29.58;12.00;;;;;;;;;;5045571;28;20461;-60
2021/07/16 13:18:16;;;;;;;27.90;11.73;;;;;;;;;;5032188;28;20105;-61
2021/07/16 13:20:43;;;;;;;27.70;12.70;;;;;;;;;;5031753;28;20104;-62
2021/07/16 13:23:09;;;;;;;26.17;12.15;;;;;;;;;;5031683;28;20030;-63
2021/07/16 13:25:35;;;;;;;25.88;11.23;;;;;;;;;;5031542;28;20124;-62
2021/07/16 13:28:01;;;;;;;30.25;12.52;;;;;;;;;;5031869;28;20029;-63
2021/07/16 13:30:27;;;;;;;29.02;11.95;;;;;;;;;;5032308;28;20022;-63
2021/07/16 13:32:53;;;;;;;29.40;12.98;;;;;;;;;;5031711;28;20098;-61
2021/07/16 13:35:19;;;;;;;25.60;11.20;;;;;;;;;;5031798;28;20025;-63
2021/07/16 13:37:45;;;;;;;27.23;12.52;;;;;;;;;;5032106;28;20036;-63
2021/07/16 13:40:11;;;;;;;26.80;11.90;;;;;;;;;;5031666;28;20017;-61
2021/07/16 13:42:38;;;;;;;28.25;12.30;;;;;;;;;;5030989;28;20021;-63
2021/07/16 13:45:05;;;;;;;27.15;13.13;;;;;;;;;;5031810;28;20021;-63
2021/07/16 13:47:31;;;;;;;25.17;12.63;;;;;;;;;;5031875;28;20428;-59
2021/07/16 13:49:57;;;;;;;27.08;12.70;;;;;;;;;;5031352;28;20026;-64
2021/07/16 13:52:23;;;;;;;26.25;12.55;;;;;;;;;;5031426;28;20069;-62
2021/07/16 13:54:49;;;;;;;24.15;12.70;;;;;;;;;;5031430;28;20059;-62
2021/07/16 13:57:19;;;;;;;28.58;11.88;;;;;;;;;;5031332;28;20099;-63
2021/07/16 13:59:45;;;;;;;22.45;11.88;;;;;;;;;;5031752;28;20048;-62
2021/07/16 14:02:11;;;;;;;24.00;11.40;;;;;;;;;;5030397;28;20490;-63
2021/07/16 14:04:37;;;;;;;27.52;12.18;;;;;;;;;;5031260;28;20045;-61
2021/07/16 14:07:03;;;;;;;27.48;13.13;;;;;;;;;;5031583;28;20040;-62
2021/07/16 14:09:29;;;;;;;23.98;12.23;;;;;;;;;;5030118;28;20135;-62
2021/07/16 14:11:57;;;;;;;29.80;12.13;;;;;;;;;;5029944;28;20389;-63
2021/07/16 14:14:23;;;;;;;23.73;12.13;;;;;;;;;;5031535;28;20047;-63
2021/07/16 14:16:50;;;;;;;25.10;11.68;;;;;;;;;;5084939;22;20492;-59
2021/07/16 14:19:16;;;;;;;25.83;11.90;;;;;;;;;;5054212;28;20025;-57
2021/07/16 14:21:42;;;;;;;26.38;12.18;;;;;;;;;;5072186;28;20031;-58